sensor_id;sensor_type;location;lat;lon;timestamp;pressure;altitude;pressure_sealevel;temperature;humidity
64076;BME280;50327;51.328;12.324;2023-06-22T00:01:16;52671.38;;;-144.47;78.77
64076;BME280;50327;51.328;12.324;2023-06-22T00:03:41;52661.44;;;-144.47;79.40
64076;BME280;50327;51.328;12.324;2023-06-22T00:06:06;52651.53;;;-144.47;79.14
64076;BME280;50327;51.328;12.324;2023-06-22T00:08:32;52669.41;;;-144.47;79.92
64076;BME280;50327;51.328;12.324;2023-06-22T00:10:57;52647.56;;;-144.47;77.62
64076;BME280;50327;51.328;12.324;2023-06-22T00:13:22;52661.44;;;-144.47;78.34
64076;BME280;50327;51.328;12.324;2023-06-22T00:15:48;52655.50;;;-144.47;79.49
64076;BME280;50327;51.328;12.324;2023-06-22T00:18:13;52641.59;;;-144.47;79.14
64076;BME280;50327;51.328;12.324;2023-06-22T00:20:39;52665.44;;;-144.47;78.89
64076;BME280;50327;51.328;12.324;2023-06-22T00:23:06;52651.53;;;-144.47;78.31
64076;BME280;50327;51.328;12.324;2023-06-22T00:25:38;52679.31;;;-144.47;78.55
64076;BME280;50327;51.328;12.324;2023-06-22T00:28:05;52669.41;;;-144.47;79.31
64076;BME280;50327;51.328;12.324;2023-06-22T00:30:32;52649.53;;;-144.47;79.25
64076;BME280;50327;51.328;12.324;2023-06-22T00:32:57;52653.50;;;-144.47;79.31
64076;BME280;50327;51.328;12.324;2023-06-22T00:35:24;52681.31;;;-144.47;79.82
64076;BME280;50327;51.328;12.324;2023-06-22T00:37:57;52655.50;;;-144.47;79.53
64076;BME280;50327;51.328;12.324;2023-06-22T00:40:29;52665.44;;;-144.47;80.61
64076;BME280;50327;51.328;12.324;2023-06-22T00:42:56;52655.50;;;-144.47;81.20
64076;BME280;50327;51.328;12.324;2023-06-22T00:45:22;52629.69;;;-144.47;82.84
64076;BME280;50327;51.328;12.324;2023-06-22T00:47:55;52685.28;;;-144.47;83.87
64076;BME280;50327;51.328;12.324;2023-06-22T00:50:26;52661.44;;;-144.47;83.97
64076;BME280;50327;51.328;12.324;2023-06-22T00:52:54;52649.53;;;-144.47;83.89
64076;BME280;50327;51.328;12.324;2023-06-22T00:55:22;52661.44;;;-144.47;84.31
64076;BME280;50327;51.328;12.324;2023-06-22T00:57:48;52635.63;;;-144.47;84.98
64076;BME280;50327;51.328;12.324;2023-06-22T01:00:15;52657.47;;;-144.47;85.28
64076;BME280;50327;51.328;12.324;2023-06-22T01:02:45;52649.53;;;-144.47;86.24
64076;BME280;50327;51.328;12.324;2023-06-22T01:05:14;52669.41;;;-144.47;85.71
64076;BME280;50327;51.328;12.324;2023-06-22T01:16:07;52629.69;;;-144.47;87.42
64076;BME280;50327;51.328;12.324;2023-06-22T01:18:36;52661.44;;;-144.47;88.19
64076;BME280;50327;51.328;12.324;2023-06-22T01:21:05;52681.31;;;-144.47;87.56
64076;BME280;50327;51.328;12.324;2023-06-22T01:26:28;52649.53;;;-144.47;88.71
64076;BME280;50327;51.328;12.324;2023-06-22T01:29:01;52663.44;;;-144.47;89.26
64076;BME280;50327;51.328;12.324;2023-06-22T01:31:29;52651.53;;;-144.47;89.88
64076;BME280;50327;51.328;12.324;2023-06-22T01:33:59;52669.41;;;-144.47;89.90
64076;BME280;50327;51.328;12.324;2023-06-22T01:36:29;52665.44;;;-144.47;90.10
64076;BME280;50327;51.328;12.324;2023-06-22T01:38:56;52663.44;;;-144.47;90.50
64076;BME280;50327;51.328;12.324;2023-06-22T01:41:25;52653.50;;;-144.47;91.10
64076;BME280;50327;51.328;12.324;2023-06-22T01:43:52;52657.47;;;-144.47;91.36
64076;BME280;50327;51.328;12.324;2023-06-22T01:46:18;52621.72;;;-144.47;92.23
64076;BME280;50327;51.328;12.324;2023-06-22T01:48:45;52665.44;;;-144.47;91.99
64076;BME280;50327;51.328;12.324;2023-06-22T01:51:14;52649.53;;;-144.47;90.77
64076;BME280;50327;51.328;12.324;2023-06-22T01:53:40;52663.44;;;-144.47;90.83
64076;BME280;50327;51.328;12.324;2023-06-22T01:56:06;52643.56;;;-144.47;90.69
64076;BME280;50327;51.328;12.324;2023-06-22T01:58:32;52657.47;;;-144.47;91.47
64076;BME280;50327;51.328;12.324;2023-06-22T02:01:10;52631.66;;;-144.47;91.72
64076;BME280;50327;51.328;12.324;2023-06-22T02:03:40;52635.63;;;-144.47;92.29
64076;BME280;50327;51.328;12.324;2023-06-22T02:06:16;52669.41;;;-144.47;92.10
64076;BME280;50327;51.328;12.324;2023-06-22T02:08:47;52657.47;;;-144.47;92.72
64076;BME280;50327;51.328;12.324;2023-06-22T02:11:15;52669.41;;;-144.47;92.74
64076;BME280;50327;51.328;12.324;2023-06-22T02:13:42;52665.44;;;-144.47;93.01
64076;BME280;50327;51.328;12.324;2023-06-22T02:16:12;52665.44;;;-144.47;92.90
64076;BME280;50327;51.328;12.324;2023-06-22T02:18:38;52653.50;;;-144.47;93.13
64076;BME280;50327;51.328;12.324;2023-06-22T02:21:05;52651.53;;;-144.47;93.07
64076;BME280;50327;51.328;12.324;2023-06-22T02:23:31;52665.44;;;-144.47;93.61
64076;BME280;50327;51.328;12.324;2023-06-22T02:25:58;52651.53;;;-144.47;95.06
64076;BME280;50327;51.328;12.324;2023-06-22T02:28:23;52645.56;;;-144.47;94.68
64076;BME280;50327;51.328;12.324;2023-06-22T02:30:49;52657.47;;;-144.47;94.84
64076;BME280;50327;51.328;12.324;2023-06-22T02:33:14;52657.47;;;-144.47;95.93
64076;BME280;50327;51.328;12.324;2023-06-22T02:35:39;52643.56;;;-144.47;95.87
64076;BME280;50327;51.328;12.324;2023-06-22T02:38:10;52657.47;;;-144.47;95.54
64076;BME280;50327;51.328;12.324;2023-06-22T02:40:36;52671.38;;;-144.47;95.92
64076;BME280;50327;51.328;12.324;2023-06-22T02:43:01;52635.63;;;-144.47;96.22
64076;BME280;50327;51.328;12.324;2023-06-22T02:45:28;52645.56;;;-144.47;96.47
64076;BME280;50327;51.328;12.324;2023-06-22T02:47:55;52643.56;;;-144.47;96.59
64076;BME280;50327;51.328;12.324;2023-06-22T02:50:20;52657.47;;;-144.47;97.62
64076;BME280;50327;51.328;12.324;2023-06-22T02:52:45;52655.50;;;-144.47;98.03
64076;BME280;50327;51.328;12.324;2023-06-22T02:55:11;52635.63;;;-144.47;97.93
64076;BME280;50327;51.328;12.324;2023-06-22T02:57:37;52659.47;;;-144.47;98.81
64076;BME280;50327;51.328;12.324;2023-06-22T03:00:03;52639.59;;;-144.47;99.45
64076;BME280;50327;51.328;12.324;2023-06-22T03:02:46;52663.44;;;-144.47;99.13
64076;BME280;50327;51.328;12.324;2023-06-22T03:05:13;52645.56;;;-144.47;99.53
64076;BME280;50327;51.328;12.324;2023-06-22T03:07:45;52643.56;;;-144.47;99.64
64076;BME280;50327;51.328;12.324;2023-06-22T03:10:12;52657.47;;;-144.47;100.00
64076;BME280;50327;51.328;12.324;2023-06-22T03:12:38;52649.53;;;-144.47;100.00
64076;BME280;50327;51.328;12.324;2023-06-22T03:15:11;52663.44;;;-144.47;100.00
64076;BME280;50327;51.328;12.324;2023-06-22T03:17:38;52655.50;;;-144.47;100.00
64076;BME280;50327;51.328;12.324;2023-06-22T03:20:05;52649.53;;;-144.47;100.00
64076;BME280;50327;51.328;12.324;2023-06-22T03:22:37;52673.38;;;-144.47;100.00
64076;BME280;50327;51.328;12.324;2023-06-22T03:25:03;52657.47;;;-144.47;100.00
64076;BME280;50327;51.328;12.324;2023-06-22T03:27:29;52677.34;;;-144.47;100.00
64076;BME280;50327;51.328;12.324;2023-06-22T03:29:57;52653.50;;;-144.47;100.00
64076;BME280;50327;51.328;12.324;2023-06-22T03:32:22;52663.44;;;-144.47;100.00
64076;BME280;50327;51.328;12.324;2023-06-22T03:34:48;52651.53;;;-144.47;99.91
64076;BME280;50327;51.328;12.324;2023-06-22T03:37:16;52671.38;;;-144.47;100.00
64076;BME280;50327;51.328;12.324;2023-06-22T03:39:41;52683.31;;;-144.47;100.00
64076;BME280;50327;51.328;12.324;2023-06-22T03:42:07;52653.50;;;-144.47;100.00
64076;BME280;50327;51.328;12.324;2023-06-22T03:44:33;52651.53;;;-144.47;100.00
64076;BME280;50327;51.328;12.324;2023-06-22T03:47:00;52679.31;;;-144.47;100.00
64076;BME280;50327;51.328;12.324;2023-06-22T03:49:27;52661.44;;;-144.47;100.00
64076;BME280;50327;51.328;12.324;2023-06-22T03:51:52;52673.38;;;-144.47;99.93
64076;BME280;50327;51.328;12.324;2023-06-22T03:54:18;52661.44;;;-144.47;99.19
64076;BME280;50327;51.328;12.324;2023-06-22T03:56:43;52691.25;;;-144.47;98.60
64076;BME280;50327;51.328;12.324;2023-06-22T03:59:09;52653.50;;;-144.47;98.53
64076;BME280;50327;51.328;12.324;2023-06-22T04:01:35;52665.44;;;-144.47;98.01
64076;BME280;50327;51.328;12.324;2023-06-22T04:04:00;52649.53;;;-144.47;97.37
64076;BME280;50327;51.328;12.324;2023-06-22T04:06:25;52639.59;;;-144.47;96.57
64076;BME280;50327;51.328;12.324;2023-06-22T04:08:51;52653.50;;;-144.47;96.09
64076;BME280;50327;51.328;12.324;2023-06-22T04:11:17;52667.41;;;-144.47;95.72
64076;BME280;50327;51.328;12.324;2023-06-22T04:13:44;52679.31;;;-144.47;95.15
64076;BME280;50327;51.328;12.324;2023-06-22T04:16:09;52701.19;;;-144.47;95.18
64076;BME280;50327;51.328;12.324;2023-06-22T04:18:35;52669.41;;;-144.47;95.07
64076;BME280;50327;51.328;12.324;2023-06-22T04:21:01;52665.44;;;-144.47;95.51
64076;BME280;50327;51.328;12.324;2023-06-22T04:23:27;52665.44;;;-144.47;95.46
64076;BME280;50327;51.328;12.324;2023-06-22T04:25:52;52675.34;;;-144.47;95.70
64076;BME280;50327;51.328;12.324;2023-06-22T04:28:18;52651.53;;;-144.47;95.93
64076;BME280;50327;51.328;12.324;2023-06-22T04:30:43;52673.38;;;-144.47;96.70
64076;BME280;50327;51.328;12.324;2023-06-22T04:33:15;52643.56;;;-144.47;98.81
64076;BME280;50327;51.328;12.324;2023-06-22T04:35:41;52661.44;;;-144.47;99.44
64076;BME280;50327;51.328;12.324;2023-06-22T04:38:07;52653.50;;;-144.47;99.77
64076;BME280;50327;51.328;12.324;2023-06-22T04:40:33;52645.56;;;-144.47;99.81
64076;BME280;50327;51.328;12.324;2023-06-22T04:42:58;52681.31;;;-144.47;100.00
64076;BME280;50327;51.328;12.324;2023-06-22T04:45:27;52663.44;;;-144.47;100.00
64076;BME280;50327;51.328;12.324;2023-06-22T04:47:53;52681.31;;;-144.47;100.00
64076;BME280;50327;51.328;12.324;2023-06-22T04:50:18;52665.44;;;-144.47;100.00
64076;BME280;50327;51.328;12.324;2023-06-22T04:52:46;52689.25;;;-144.47;100.00
64076;BME280;50327;51.328;12.324;2023-06-22T04:55:12;52665.44;;;-144.47;100.00
64076;BME280;50327;51.328;12.324;2023-06-22T04:57:37;52681.31;;;-144.47;100.00
64076;BME280;50327;51.328;12.324;2023-06-22T05:00:05;52681.31;;;-144.47;100.00
64076;BME280;50327;51.328;12.324;2023-06-22T05:02:40;52677.34;;;-144.47;99.86
64076;BME280;50327;51.328;12.324;2023-06-22T05:05:05;52699.19;;;-144.47;99.45
64076;BME280;50327;51.328;12.324;2023-06-22T05:07:36;52679.31;;;-144.47;99.15
64076;BME280;50327;51.328;12.324;2023-06-22T05:10:02;52673.38;;;-144.47;98.74
64076;BME280;50327;51.328;12.324;2023-06-22T05:12:29;52687.28;;;-144.47;98.01
64076;BME280;50327;51.328;12.324;2023-06-22T05:14:55;52693.22;;;-144.47;100.00
64076;BME280;50327;51.328;12.324;2023-06-22T05:17:20;52675.34;;;-144.47;99.96
64076;BME280;50327;51.328;12.324;2023-06-22T05:19:46;52689.25;;;-144.47;99.31
64076;BME280;50327;51.328;12.324;2023-06-22T05:22:15;52689.25;;;-144.47;98.63
64076;BME280;50327;51.328;12.324;2023-06-22T05:24:41;52689.25;;;-144.47;98.43
64076;BME280;50327;51.328;12.324;2023-06-22T05:27:07;52669.41;;;-144.47;97.99
64076;BME280;50327;51.328;12.324;2023-06-22T05:29:32;52681.31;;;-144.47;98.03
64076;BME280;50327;51.328;12.324;2023-06-22T05:31:57;52677.34;;;-144.47;97.73
64076;BME280;50327;51.328;12.324;2023-06-22T05:34:23;52679.31;;;-144.47;97.46
64076;BME280;50327;51.328;12.324;2023-06-22T05:36:48;52689.25;;;-144.47;97.98
64076;BME280;50327;51.328;12.324;2023-06-22T05:39:14;52693.22;;;-144.47;97.46
64076;BME280;50327;51.328;12.324;2023-06-22T05:41:42;52681.31;;;-144.47;96.80
64076;BME280;50327;51.328;12.324;2023-06-22T05:44:08;52657.47;;;-144.47;96.12
64076;BME280;50327;51.328;12.324;2023-06-22T05:46:34;52679.31;;;-144.47;94.75
64076;BME280;50327;51.328;12.324;2023-06-22T05:49:00;52707.13;;;-144.47;93.76
64076;BME280;50327;51.328;12.324;2023-06-22T05:51:25;52703.16;;;-144.47;92.88
64076;BME280;50327;51.328;12.324;2023-06-22T05:53:50;52679.31;;;-144.47;91.14
64076;BME280;50327;51.328;12.324;2023-06-22T05:56:16;52669.41;;;-144.47;89.10
64076;BME280;50327;51.328;12.324;2023-06-22T05:58:42;52709.13;;;-144.47;89.15
64076;BME280;50327;51.328;12.324;2023-06-22T06:01:07;52699.19;;;-144.47;88.51
64076;BME280;50327;51.328;12.324;2023-06-22T06:03:33;52713.09;;;-144.47;87.12
64076;BME280;50327;51.328;12.324;2023-06-22T06:05:58;52685.28;;;-144.47;86.26
64076;BME280;50327;51.328;12.324;2023-06-22T06:08:25;52691.25;;;-144.47;85.74
64076;BME280;50327;51.328;12.324;2023-06-22T06:10:50;52689.25;;;-144.47;84.89
64076;BME280;50327;51.328;12.324;2023-06-22T06:13:18;52687.28;;;-144.47;84.81
64076;BME280;50327;51.328;12.324;2023-06-22T06:15:43;52687.28;;;-144.47;82.92
64076;BME280;50327;51.328;12.324;2023-06-22T06:18:09;52693.22;;;-144.47;82.85
64076;BME280;50327;51.328;12.324;2023-06-22T06:20:34;52734.94;;;-144.47;81.82
64076;BME280;50327;51.328;12.324;2023-06-22T06:23:00;52721.03;;;-144.47;80.26
64076;BME280;50327;51.328;12.324;2023-06-22T06:25:26;52685.28;;;-144.47;79.71
64076;BME280;50327;51.328;12.324;2023-06-22T06:27:51;52697.19;;;-144.47;78.40
64076;BME280;50327;51.328;12.324;2023-06-22T06:30:19;52709.13;;;-144.47;78.09
64076;BME280;50327;51.328;12.324;2023-06-22T06:32:46;52705.16;;;-144.47;76.76
64076;BME280;50327;51.328;12.324;2023-06-22T06:35:13;52689.25;;;-144.47;76.65
64076;BME280;50327;51.328;12.324;2023-06-22T06:37:41;52701.19;;;-144.47;76.72
64076;BME280;50327;51.328;12.324;2023-06-22T06:40:08;52697.19;;;-144.47;77.55
64076;BME280;50327;51.328;12.324;2023-06-22T06:42:35;52701.19;;;-144.47;77.51
64076;BME280;50327;51.328;12.324;2023-06-22T06:45:03;52705.16;;;-144.47;75.71
64076;BME280;50327;51.328;12.324;2023-06-22T06:47:29;52699.19;;;-144.47;74.85
64076;BME280;50327;51.328;12.324;2023-06-22T06:49:54;52707.13;;;-144.47;74.01
64076;BME280;50327;51.328;12.324;2023-06-22T06:52:20;52705.16;;;-144.47;72.97
64076;BME280;50327;51.328;12.324;2023-06-22T06:54:45;52697.19;;;-144.47;72.40
64076;BME280;50327;51.328;12.324;2023-06-22T06:57:10;52728.97;;;-144.47;72.21
64076;BME280;50327;51.328;12.324;2023-06-22T06:59:38;52721.03;;;-144.47;71.43
64076;BME280;50327;51.328;12.324;2023-06-22T07:02:04;52709.13;;;-144.47;70.85
64076;BME280;50327;51.328;12.324;2023-06-22T07:04:30;52713.09;;;-144.47;70.06
64076;BME280;50327;51.328;12.324;2023-06-22T07:06:55;52707.13;;;-144.47;69.65
64076;BME280;50327;51.328;12.324;2023-06-22T07:09:20;52734.94;;;-144.47;69.69
64076;BME280;50327;51.328;12.324;2023-06-22T07:11:46;52723.03;;;-144.47;68.21
64076;BME280;50327;51.328;12.324;2023-06-22T07:14:11;52734.94;;;-144.47;68.79
64076;BME280;50327;51.328;12.324;2023-06-22T07:16:36;52730.97;;;-144.47;67.88
64076;BME280;50327;51.328;12.324;2023-06-22T07:19:02;52725.00;;;-144.47;67.17
64076;BME280;50327;51.328;12.324;2023-06-22T07:21:28;52728.97;;;-144.47;67.28
64076;BME280;50327;51.328;12.324;2023-06-22T07:23:53;52740.91;;;-144.47;66.91
64076;BME280;50327;51.328;12.324;2023-06-22T07:26:19;52738.91;;;-144.47;66.23
64076;BME280;50327;51.328;12.324;2023-06-22T07:28:44;52717.06;;;-144.47;65.88
64076;BME280;50327;51.328;12.324;2023-06-22T07:31:10;52742.88;;;-144.47;64.38
64076;BME280;50327;51.328;12.324;2023-06-22T07:33:35;52752.81;;;-144.47;65.29
64076;BME280;50327;51.328;12.324;2023-06-22T07:36:00;52725.00;;;-144.47;64.79
64076;BME280;50327;51.328;12.324;2023-06-22T07:38:27;52748.84;;;-144.47;64.15
64076;BME280;50327;51.328;12.324;2023-06-22T07:40:53;52734.94;;;-144.47;64.26
64076;BME280;50327;51.328;12.324;2023-06-22T07:43:19;52728.97;;;-144.47;63.28
64076;BME280;50327;51.328;12.324;2023-06-22T07:45:50;52758.78;;;-144.47;62.68
64076;BME280;50327;51.328;12.324;2023-06-22T07:48:22;52732.94;;;-144.47;62.61
64076;BME280;50327;51.328;12.324;2023-06-22T07:50:48;52740.91;;;-144.47;62.38
64076;BME280;50327;51.328;12.324;2023-06-22T07:53:14;52752.81;;;-144.47;61.33
64076;BME280;50327;51.328;12.324;2023-06-22T07:55:39;52760.75;;;-144.47;60.21
64076;BME280;50327;51.328;12.324;2023-06-22T07:58:05;52764.72;;;-144.47;58.96
64076;BME280;50327;51.328;12.324;2023-06-22T08:00:30;52776.66;;;-144.47;58.93
64076;BME280;50327;51.328;12.324;2023-06-22T08:02:55;52772.69;;;-144.47;59.30
64076;BME280;50327;51.328;12.324;2023-06-22T08:05:21;52758.78;;;-144.47;60.31
64076;BME280;50327;51.328;12.324;2023-06-22T08:07:47;52760.75;;;-144.47;60.20
64076;BME280;50327;51.328;12.324;2023-06-22T08:10:13;52744.88;;;-144.47;60.66
64076;BME280;50327;51.328;12.324;2023-06-22T08:12:40;52788.56;;;-144.47;59.86
64076;BME280;50327;51.328;12.324;2023-06-22T08:15:06;52784.59;;;-144.47;60.27
64076;BME280;50327;51.328;12.324;2023-06-22T08:17:32;52744.88;;;-144.47;60.58
64076;BME280;50327;51.328;12.324;2023-06-22T08:19:58;52756.78;;;-144.47;60.32
64076;BME280;50327;51.328;12.324;2023-06-22T08:22:23;52756.78;;;-144.47;59.65
64076;BME280;50327;51.328;12.324;2023-06-22T08:24:48;52742.88;;;-144.47;59.95
64076;BME280;50327;51.328;12.324;2023-06-22T08:27:15;52778.63;;;-144.47;59.25
64076;BME280;50327;51.328;12.324;2023-06-22T08:29:43;52776.66;;;-144.47;59.70
64076;BME280;50327;51.328;12.324;2023-06-22T08:32:11;52772.69;;;-144.47;59.40
64076;BME280;50327;51.328;12.324;2023-06-22T08:34:36;52770.69;;;-144.47;57.59
64076;BME280;50327;51.328;12.324;2023-06-22T08:37:02;52788.56;;;-144.47;57.12
64076;BME280;50327;51.328;12.324;2023-06-22T08:39:31;52764.72;;;-144.47;56.88
64076;BME280;50327;51.328;12.324;2023-06-22T08:41:57;52796.50;;;-144.47;56.42
64076;BME280;50327;51.328;12.324;2023-06-22T08:44:22;52804.44;;;-144.47;56.31
64076;BME280;50327;51.328;12.324;2023-06-22T08:46:47;52806.44;;;-144.47;56.57
64076;BME280;50327;51.328;12.324;2023-06-22T08:49:13;52800.47;;;-144.47;55.68
64076;BME280;50327;51.328;12.324;2023-06-22T08:51:38;52788.56;;;-144.47;55.21
64076;BME280;50327;51.328;12.324;2023-06-22T08:54:03;52806.44;;;-144.47;55.51
64076;BME280;50327;51.328;12.324;2023-06-22T08:56:30;52778.63;;;-144.47;55.75
64076;BME280;50327;51.328;12.324;2023-06-22T08:58:55;52804.44;;;-144.47;55.08
64076;BME280;50327;51.328;12.324;2023-06-22T09:01:21;52804.44;;;-144.47;54.68
64076;BME280;50327;51.328;12.324;2023-06-22T09:03:47;52786.56;;;-144.47;54.46
64076;BME280;50327;51.328;12.324;2023-06-22T09:06:20;52802.47;;;-144.47;54.46
64076;BME280;50327;51.328;12.324;2023-06-22T09:08:47;52816.38;;;-144.47;53.30
64076;BME280;50327;51.328;12.324;2023-06-22T09:11:12;52820.34;;;-144.47;53.34
64076;BME280;50327;51.328;12.324;2023-06-22T09:13:38;52834.25;;;-144.47;52.67
64076;BME280;50327;51.328;12.324;2023-06-22T09:16:03;52802.47;;;-144.47;52.34
64076;BME280;50327;51.328;12.324;2023-06-22T09:18:29;52784.59;;;-144.47;51.35
64076;BME280;50327;51.328;12.324;2023-06-22T09:20:54;52824.31;;;-144.47;51.01
64076;BME280;50327;51.328;12.324;2023-06-22T09:23:20;52840.19;;;-144.47;50.78
64076;BME280;50327;51.328;12.324;2023-06-22T09:25:45;52802.47;;;-144.47;50.97
64076;BME280;50327;51.328;12.324;2023-06-22T09:28:13;52828.28;;;-144.47;50.71
64076;BME280;50327;51.328;12.324;2023-06-22T09:30:38;52826.31;;;-144.47;49.22
64076;BME280;50327;51.328;12.324;2023-06-22T09:33:03;52830.28;;;-144.47;48.71
64076;BME280;50327;51.328;12.324;2023-06-22T09:35:29;52832.25;;;-144.47;48.09
64076;BME280;50327;51.328;12.324;2023-06-22T09:37:54;52856.09;;;-144.47;48.04
64076;BME280;50327;51.328;12.324;2023-06-22T09:40:20;52836.22;;;-144.47;48.49
64076;BME280;50327;51.328;12.324;2023-06-22T09:42:45;52810.41;;;-144.47;48.15
64076;BME280;50327;51.328;12.324;2023-06-22T09:45:10;52840.19;;;-144.47;47.75
64076;BME280;50327;51.328;12.324;2023-06-22T09:47:36;52822.31;;;-144.47;48.15
64076;BME280;50327;51.328;12.324;2023-06-22T09:50:02;52810.41;;;-144.47;47.69
64076;BME280;50327;51.328;12.324;2023-06-22T09:52:27;52822.31;;;-144.47;47.71
64076;BME280;50327;51.328;12.324;2023-06-22T09:54:52;52828.28;;;-144.47;47.17
64076;BME280;50327;51.328;12.324;2023-06-22T09:57:18;52854.09;;;-144.47;46.52
64076;BME280;50327;51.328;12.324;2023-06-22T09:59:43;52850.13;;;-144.47;46.93
64076;BME280;50327;51.328;12.324;2023-06-22T10:02:08;52854.09;;;-144.47;46.05
64076;BME280;50327;51.328;12.324;2023-06-22T10:04:34;52881.91;;;-144.47;44.16
64076;BME280;50327;51.328;12.324;2023-06-22T10:07:01;52868.00;;;-144.47;43.61
64076;BME280;50327;51.328;12.324;2023-06-22T10:09:26;52862.06;;;-144.47;42.81
64076;BME280;50327;51.328;12.324;2023-06-22T10:11:52;52834.25;;;-144.47;43.99
64076;BME280;50327;51.328;12.324;2023-06-22T10:14:18;52846.16;;;-144.47;43.76
64076;BME280;50327;51.328;12.324;2023-06-22T10:16:44;52860.06;;;-144.47;43.94
64076;BME280;50327;51.328;12.324;2023-06-22T10:19:09;52824.31;;;-144.47;43.69
64076;BME280;50327;51.328;12.324;2023-06-22T10:21:35;52836.22;;;-144.47;43.20
64076;BME280;50327;51.328;12.324;2023-06-22T10:24:01;52875.94;;;-144.47;44.30
64076;BME280;50327;51.328;12.324;2023-06-22T10:26:32;52844.19;;;-144.47;44.96
64076;BME280;50327;51.328;12.324;2023-06-22T10:28:57;52852.13;;;-144.47;44.58
64076;BME280;50327;51.328;12.324;2023-06-22T10:31:22;52871.97;;;-144.47;43.84
64076;BME280;50327;51.328;12.324;2023-06-22T10:33:48;52848.16;;;-144.47;43.29
64076;BME280;50327;51.328;12.324;2023-06-22T10:36:14;52877.94;;;-144.47;43.24
64076;BME280;50327;51.328;12.324;2023-06-22T10:38:40;52889.84;;;-144.47;43.29
64076;BME280;50327;51.328;12.324;2023-06-22T10:41:05;52864.03;;;-144.47;43.53
64076;BME280;50327;51.328;12.324;2023-06-22T10:43:31;52866.03;;;-144.47;43.42
64076;BME280;50327;51.328;12.324;2023-06-22T10:45:56;52887.88;;;-144.47;43.52
64076;BME280;50327;51.328;12.324;2023-06-22T10:48:21;52907.72;;;-144.47;42.99
64076;BME280;50327;51.328;12.324;2023-06-22T10:50:47;52903.75;;;-144.47;42.72
64076;BME280;50327;51.328;12.324;2023-06-22T10:53:12;52909.72;;;-144.47;42.33
64076;BME280;50327;51.328;12.324;2023-06-22T10:55:37;52903.75;;;-144.47;42.07
64076;BME280;50327;51.328;12.324;2023-06-22T10:58:03;52939.50;;;-144.47;41.53
64076;BME280;50327;51.328;12.324;2023-06-22T11:00:28;52919.66;;;-144.47;41.51
64076;BME280;50327;51.328;12.324;2023-06-22T11:02:57;52927.59;;;-144.47;41.85
64076;BME280;50327;51.328;12.324;2023-06-22T11:05:23;52897.81;;;-144.47;41.77
64076;BME280;50327;51.328;12.324;2023-06-22T11:07:49;52907.72;;;-144.47;42.12
64076;BME280;50327;51.328;12.324;2023-06-22T11:10:15;52909.72;;;-144.47;42.10
64076;BME280;50327;51.328;12.324;2023-06-22T11:12:40;52899.78;;;-144.47;41.48
64076;BME280;50327;51.328;12.324;2023-06-22T11:15:08;52911.69;;;-144.47;41.62
64076;BME280;50327;51.328;12.324;2023-06-22T11:17:34;52903.75;;;-144.47;42.12
64076;BME280;50327;51.328;12.324;2023-06-22T11:19:59;52903.75;;;-144.47;42.32
64076;BME280;50327;51.328;12.324;2023-06-22T11:22:25;52939.50;;;-144.47;41.64
64076;BME280;50327;51.328;12.324;2023-06-22T11:24:50;52917.66;;;-144.47;41.37
64076;BME280;50327;51.328;12.324;2023-06-22T11:27:16;52907.72;;;-144.47;42.28
64076;BME280;50327;51.328;12.324;2023-06-22T11:29:41;52919.66;;;-144.47;42.18
64076;BME280;50327;51.328;12.324;2023-06-22T11:32:07;52915.69;;;-144.47;41.68
64076;BME280;50327;51.328;12.324;2023-06-22T11:34:33;52943.47;;;-144.47;41.28
64076;BME280;50327;51.328;12.324;2023-06-22T11:36:58;52927.59;;;-144.47;41.13
64076;BME280;50327;51.328;12.324;2023-06-22T11:39:23;52965.34;;;-144.47;40.78
64076;BME280;50327;51.328;12.324;2023-06-22T11:41:49;52985.19;;;-144.47;40.90
64076;BME280;50327;51.328;12.324;2023-06-22T11:44:14;52985.19;;;-144.47;40.91
64076;BME280;50327;51.328;12.324;2023-06-22T11:46:39;52961.34;;;-144.47;40.69
64076;BME280;50327;51.328;12.324;2023-06-22T11:49:05;52929.59;;;-144.47;41.20
64076;BME280;50327;51.328;12.324;2023-06-22T11:51:30;52943.47;;;-144.47;40.98
64076;BME280;50327;51.328;12.324;2023-06-22T11:53:56;52977.25;;;-144.47;40.92
64076;BME280;50327;51.328;12.324;2023-06-22T11:56:22;52959.38;;;-144.47;41.03
64076;BME280;50327;51.328;12.324;2023-06-22T11:58:47;52941.50;;;-144.47;40.73
64076;BME280;50327;51.328;12.324;2023-06-22T12:01:12;52965.34;;;-144.47;41.24
64076;BME280;50327;51.328;12.324;2023-06-22T12:06:07;52957.38;;;-144.47;40.23
64076;BME280;50327;51.328;12.324;2023-06-22T12:08:32;52927.59;;;-144.47;40.14
64076;BME280;50327;51.328;12.324;2023-06-22T12:10:58;52957.38;;;-144.47;40.43
64076;BME280;50327;51.328;12.324;2023-06-22T12:13:23;52971.28;;;-144.47;40.03
64076;BME280;50327;51.328;12.324;2023-06-22T12:15:48;52979.22;;;-144.47;40.13
64076;BME280;50327;51.328;12.324;2023-06-22T12:18:14;52969.31;;;-144.47;40.21
64076;BME280;50327;51.328;12.324;2023-06-22T12:20:40;52987.19;;;-144.47;40.32
64076;BME280;50327;51.328;12.324;2023-06-22T12:23:05;53015.00;;;-144.47;39.86
64076;BME280;50327;51.328;12.324;2023-06-22T12:25:31;52979.22;;;-144.47;39.69
64076;BME280;50327;51.328;12.324;2023-06-22T12:27:56;53005.06;;;-144.47;39.19
64076;BME280;50327;51.328;12.324;2023-06-22T12:30:21;53058.69;;;-144.47;38.69
64076;BME280;50327;51.328;12.324;2023-06-22T12:32:47;53024.91;;;-144.47;38.12
64076;BME280;50327;51.328;12.324;2023-06-22T12:35:12;52997.09;;;-144.47;38.58
64076;BME280;50327;51.328;12.324;2023-06-22T12:37:42;53038.81;;;-144.47;38.21
64076;BME280;50327;51.328;12.324;2023-06-22T12:40:08;53020.94;;;-144.47;38.07